Ransomville, New York
Current Conditions -  °F | °C
As of 4:33 PM on Wednesday 26 Nov 2014 (Local Time) from KIAG Reporting Station
Overcast Overcast  
Wind Chill: 23°   Ceiling: 1200
Heat Index: 32°   Visibility: 10mi
Dew Point: 29°   Wind: 13mph
Humidity: 88%   Direction: 60°ENE
Pressure: 30.08"   Gusts: NA
Location:  43.24°N, 78.91°W
Report Text: KIAG 262133Z 06011KT 10SM OVC012 00/M02 A3008 RMK AO2 SNE33 P0000 T00001017
Loading
Personal Weather Stations






























Interactive Weather Map New forecast layout! Learn more

10-Day Weather Forecast

Advertisements
Track Severe Weather on mobile